sensor_id;sensor_type;location;lat;lon;timestamp;P1;durP1;ratioP1;P2;durP2;ratioP2
63880;SDS011;50046;46.672;11.152;2022-11-20T00:00:09;0.37;;;0.37;;
63880;SDS011;50046;46.672;11.152;2022-11-20T00:00:20;0.35;;;0.35;;
63880;SDS011;50046;46.672;11.152;2022-11-20T00:00:30;0.40;;;0.40;;
63880;SDS011;50046;46.672;11.152;2022-11-20T00:00:41;0.40;;;0.40;;
63880;SDS011;50046;46.672;11.152;2022-11-20T00:00:51;0.50;;;0.50;;
63880;SDS011;50046;46.672;11.152;2022-11-20T00:01:35;0.43;;;0.43;;
63880;SDS011;50046;46.672;11.152;2022-11-20T00:01:39;0.50;;;0.50;;
63880;SDS011;50046;46.672;11.152;2022-11-20T00:01:49;0.50;;;0.50;;
63880;SDS011;50046;46.672;11.152;2022-11-20T00:02:00;0.50;;;0.50;;
63880;SDS011;50046;46.672;11.152;2022-11-20T00:02:10;0.40;;;0.40;;
63880;SDS011;50046;46.672;11.152;2022-11-20T00:02:21;0.40;;;0.40;;
63880;SDS011;50046;46.672;11.152;2022-11-20T00:02:31;0.40;;;0.40;;
63880;SDS011;50046;46.672;11.152;2022-11-20T00:02:41;0.40;;;0.40;;
63880;SDS011;50046;46.672;11.152;2022-11-20T00:02:51;0.50;;;0.50;;
63880;SDS011;50046;46.672;11.152;2022-11-20T00:03:02;0.50;;;0.50;;
63880;SDS011;50046;46.672;11.152;2022-11-20T00:03:12;0.50;;;0.50;;
63880;SDS011;50046;46.672;11.152;2022-11-20T00:03:23;0.50;;;0.50;;
63880;SDS011;50046;46.672;11.152;2022-11-20T00:03:34;0.50;;;0.50;;
63880;SDS011;50046;46.672;11.152;2022-11-20T00:03:45;0.50;;;0.50;;
63880;SDS011;50046;46.672;11.152;2022-11-20T00:03:56;0.60;;;0.60;;
63880;SDS011;50046;46.672;11.152;2022-11-20T00:04:07;0.70;;;0.70;;
63880;SDS011;50046;46.672;11.152;2022-11-20T00:04:20;0.63;;;0.63;;
63880;SDS011;50046;46.672;11.152;2022-11-20T00:04:30;0.60;;;0.60;;
63880;SDS011;50046;46.672;11.152;2022-11-20T00:04:40;0.50;;;0.50;;
63880;SDS011;50046;46.672;11.152;2022-11-20T00:04:51;0.50;;;0.50;;
63880;SDS011;50046;46.672;11.152;2022-11-20T00:05:01;0.40;;;0.40;;
63880;SDS011;50046;46.672;11.152;2022-11-20T00:05:12;0.40;;;0.40;;
63880;SDS011;50046;46.672;11.152;2022-11-20T00:05:22;0.40;;;0.40;;
63880;SDS011;50046;46.672;11.152;2022-11-20T00:05:32;0.40;;;0.40;;
63880;SDS011;50046;46.672;11.152;2022-11-20T00:05:43;0.47;;;0.47;;
63880;SDS011;50046;46.672;11.152;2022-11-20T00:05:54;0.50;;;0.50;;
63880;SDS011;50046;46.672;11.152;2022-11-20T00:06:10;0.50;;;0.50;;
63880;SDS011;50046;46.672;11.152;2022-11-20T00:06:23;0.40;;;0.40;;
63880;SDS011;50046;46.672;11.152;2022-11-20T00:06:37;0.40;;;0.40;;
63880;SDS011;50046;46.672;11.152;2022-11-20T00:06:48;0.40;;;0.40;;
63880;SDS011;50046;46.672;11.152;2022-11-20T00:06:58;0.52;;;0.52;;
63880;SDS011;50046;46.672;11.152;2022-11-20T00:07:08;0.63;;;0.63;;
63880;SDS011;50046;46.672;11.152;2022-11-20T00:07:19;0.60;;;0.60;;
63880;SDS011;50046;46.672;11.152;2022-11-20T00:07:29;0.60;;;0.60;;
63880;SDS011;50046;46.672;11.152;2022-11-20T00:07:39;0.60;;;0.60;;
63880;SDS011;50046;46.672;11.152;2022-11-20T00:07:50;0.50;;;0.50;;
63880;SDS011;50046;46.672;11.152;2022-11-20T00:08:01;0.50;;;0.50;;
63880;SDS011;50046;46.672;11.152;2022-11-20T00:08:11;0.40;;;0.40;;
63880;SDS011;50046;46.672;11.152;2022-11-20T00:08:22;0.40;;;0.40;;
63880;SDS011;50046;46.672;11.152;2022-11-20T00:08:32;0.40;;;0.40;;
63880;SDS011;50046;46.672;11.152;2022-11-20T00:08:43;0.43;;;0.43;;
63880;SDS011;50046;46.672;11.152;2022-11-20T00:08:55;0.50;;;0.50;;
63880;SDS011;50046;46.672;11.152;2022-11-20T00:09:09;0.50;;;0.50;;
63880;SDS011;50046;46.672;11.152;2022-11-20T00:09:20;0.50;;;0.50;;
63880;SDS011;50046;46.672;11.152;2022-11-20T00:09:30;0.40;;;0.40;;
63880;SDS011;50046;46.672;11.152;2022-11-20T00:09:41;0.40;;;0.40;;
63880;SDS011;50046;46.672;11.152;2022-11-20T00:09:51;0.40;;;0.40;;
63880;SDS011;50046;46.672;11.152;2022-11-20T00:10:01;0.50;;;0.50;;
63880;SDS011;50046;46.672;11.152;2022-11-20T00:10:12;0.50;;;0.50;;
63880;SDS011;50046;46.672;11.152;2022-11-20T00:10:22;0.50;;;0.50;;
63880;SDS011;50046;46.672;11.152;2022-11-20T00:10:35;0.50;;;0.50;;
63880;SDS011;50046;46.672;11.152;2022-11-20T00:10:46;0.40;;;0.40;;
63880;SDS011;50046;46.672;11.152;2022-11-20T00:10:57;0.40;;;0.40;;
63880;SDS011;50046;46.672;11.152;2022-11-20T00:11:11;0.50;;;0.50;;
63880;SDS011;50046;46.672;11.152;2022-11-20T00:11:24;0.70;;;0.70;;
63880;SDS011;50046;46.672;11.152;2022-11-20T00:11:35;0.68;;;0.68;;
63880;SDS011;50046;46.672;11.152;2022-11-20T00:11:45;0.60;;;0.60;;
63880;SDS011;50046;46.672;11.152;2022-11-20T00:11:56;0.60;;;0.60;;
63880;SDS011;50046;46.672;11.152;2022-11-20T00:12:06;0.50;;;0.50;;
63880;SDS011;50046;46.672;11.152;2022-11-20T00:12:16;0.50;;;0.50;;
63880;SDS011;50046;46.672;11.152;2022-11-20T00:12:27;0.40;;;0.40;;
63880;SDS011;50046;46.672;11.152;2022-11-20T00:12:37;0.40;;;0.40;;
63880;SDS011;50046;46.672;11.152;2022-11-20T00:12:47;0.40;;;0.40;;
63880;SDS011;50046;46.672;11.152;2022-11-20T00:12:58;0.50;;;0.50;;
63880;SDS011;50046;46.672;11.152;2022-11-20T00:13:08;0.60;;;0.60;;
63880;SDS011;50046;46.672;11.152;2022-11-20T00:13:20;0.63;;;0.63;;
63880;SDS011;50046;46.672;11.152;2022-11-20T00:13:30;0.60;;;0.60;;
63880;SDS011;50046;46.672;11.152;2022-11-20T00:13:41;0.50;;;0.50;;
63880;SDS011;50046;46.672;11.152;2022-11-20T00:13:55;0.47;;;0.47;;
63880;SDS011;50046;46.672;11.152;2022-11-20T00:14:08;0.40;;;0.40;;
63880;SDS011;50046;46.672;11.152;2022-11-20T00:14:19;0.40;;;0.40;;
63880;SDS011;50046;46.672;11.152;2022-11-20T00:14:30;0.40;;;0.40;;
63880;SDS011;50046;46.672;11.152;2022-11-20T00:14:40;0.50;;;0.50;;
63880;SDS011;50046;46.672;11.152;2022-11-20T00:14:51;0.50;;;0.50;;
63880;SDS011;50046;46.672;11.152;2022-11-20T00:15:01;0.50;;;0.50;;
63880;SDS011;50046;46.672;11.152;2022-11-20T00:15:12;0.40;;;0.40;;
63880;SDS011;50046;46.672;11.152;2022-11-20T00:15:22;0.40;;;0.40;;
63880;SDS011;50046;46.672;11.152;2022-11-20T00:15:33;0.40;;;0.40;;
63880;SDS011;50046;46.672;11.152;2022-11-20T00:15:44;0.50;;;0.50;;
63880;SDS011;50046;46.672;11.152;2022-11-20T00:15:58;0.50;;;0.50;;
63880;SDS011;50046;46.672;11.152;2022-11-20T00:16:09;0.50;;;0.50;;
63880;SDS011;50046;46.672;11.152;2022-11-20T00:16:22;0.50;;;0.50;;
63880;SDS011;50046;46.672;11.152;2022-11-20T00:16:33;0.40;;;0.40;;
63880;SDS011;50046;46.672;11.152;2022-11-20T00:16:43;0.40;;;0.40;;
63880;SDS011;50046;46.672;11.152;2022-11-20T00:16:54;0.40;;;0.40;;
63880;SDS011;50046;46.672;11.152;2022-11-20T00:17:04;0.50;;;0.50;;
63880;SDS011;50046;46.672;11.152;2022-11-20T00:17:14;0.55;;;0.55;;
63880;SDS011;50046;46.672;11.152;2022-11-20T00:17:25;0.60;;;0.60;;
63880;SDS011;50046;46.672;11.152;2022-11-20T00:17:35;0.50;;;0.50;;
63880;SDS011;50046;46.672;11.152;2022-11-20T00:17:46;0.50;;;0.50;;
63880;SDS011;50046;46.672;11.152;2022-11-20T00:17:56;0.40;;;0.40;;
63880;SDS011;50046;46.672;11.152;2022-11-20T00:18:06;0.40;;;0.40;;
63880;SDS011;50046;46.672;11.152;2022-11-20T00:18:17;0.40;;;0.40;;
63880;SDS011;50046;46.672;11.152;2022-11-20T00:18:27;0.47;;;0.47;;
63880;SDS011;50046;46.672;11.152;2022-11-20T00:18:38;0.50;;;0.50;;
63880;SDS011;50046;46.672;11.152;2022-11-20T00:18:49;0.60;;;0.60;;
63880;SDS011;50046;46.672;11.152;2022-11-20T00:18:59;0.50;;;0.50;;
63880;SDS011;50046;46.672;11.152;2022-11-20T00:19:10;0.50;;;0.50;;
63880;SDS011;50046;46.672;11.152;2022-11-20T00:19:20;0.40;;;0.40;;
63880;SDS011;50046;46.672;11.152;2022-11-20T00:19:30;0.40;;;0.40;;
63880;SDS011;50046;46.672;11.152;2022-11-20T00:19:41;0.40;;;0.40;;
63880;SDS011;50046;46.672;11.152;2022-11-20T00:19:51;0.50;;;0.50;;
63880;SDS011;50046;46.672;11.152;2022-11-20T00:20:02;0.60;;;0.60;;
63880;SDS011;50046;46.672;11.152;2022-11-20T00:20:12;0.60;;;0.60;;
63880;SDS011;50046;46.672;11.152;2022-11-20T00:20:23;0.60;;;0.60;;
63880;SDS011;50046;46.672;11.152;2022-11-20T00:20:33;0.50;;;0.50;;
63880;SDS011;50046;46.672;11.152;2022-11-20T00:20:44;0.50;;;0.50;;
63880;SDS011;50046;46.672;11.152;2022-11-20T00:20:59;0.40;;;0.40;;
63880;SDS011;50046;46.672;11.152;2022-11-20T00:21:17;0.40;;;0.40;;
63880;SDS011;50046;46.672;11.152;2022-11-20T00:21:32;0.40;;;0.40;;
63880;SDS011;50046;46.672;11.152;2022-11-20T00:21:42;0.50;;;0.50;;
63880;SDS011;50046;46.672;11.152;2022-11-20T00:21:53;0.50;;;0.50;;
63880;SDS011;50046;46.672;11.152;2022-11-20T00:22:05;0.50;;;0.50;;
63880;SDS011;50046;46.672;11.152;2022-11-20T00:22:15;0.50;;;0.50;;
63880;SDS011;50046;46.672;11.152;2022-11-20T00:22:25;0.40;;;0.40;;
63880;SDS011;50046;46.672;11.152;2022-11-20T00:22:36;0.40;;;0.40;;
63880;SDS011;50046;46.672;11.152;2022-11-20T00:22:46;0.40;;;0.40;;
63880;SDS011;50046;46.672;11.152;2022-11-20T00:22:57;0.40;;;0.40;;
63880;SDS011;50046;46.672;11.152;2022-11-20T00:23:07;0.40;;;0.40;;
63880;SDS011;50046;46.672;11.152;2022-11-20T00:23:18;0.50;;;0.50;;
63880;SDS011;50046;46.672;11.152;2022-11-20T00:23:28;0.40;;;0.40;;
63880;SDS011;50046;46.672;11.152;2022-11-20T00:23:39;0.40;;;0.40;;
63880;SDS011;50046;46.672;11.152;2022-11-20T00:23:50;0.40;;;0.40;;
63880;SDS011;50046;46.672;11.152;2022-11-20T00:24:02;0.50;;;0.50;;
63880;SDS011;50046;46.672;11.152;2022-11-20T00:24:12;0.60;;;0.60;;
63880;SDS011;50046;46.672;11.152;2022-11-20T00:24:22;0.70;;;0.70;;
63880;SDS011;50046;46.672;11.152;2022-11-20T00:24:33;0.60;;;0.60;;
63880;SDS011;50046;46.672;11.152;2022-11-20T00:24:43;0.60;;;0.60;;
63880;SDS011;50046;46.672;11.152;2022-11-20T00:24:54;0.53;;;0.53;;
63880;SDS011;50046;46.672;11.152;2022-11-20T00:25:04;0.50;;;0.50;;
63880;SDS011;50046;46.672;11.152;2022-11-20T00:25:14;0.50;;;0.50;;
63880;SDS011;50046;46.672;11.152;2022-11-20T00:25:25;0.50;;;0.50;;
63880;SDS011;50046;46.672;11.152;2022-11-20T00:25:35;0.43;;;0.43;;
63880;SDS011;50046;46.672;11.152;2022-11-20T00:25:46;0.40;;;0.40;;
63880;SDS011;50046;46.672;11.152;2022-11-20T00:25:56;0.50;;;0.50;;
63880;SDS011;50046;46.672;11.152;2022-11-20T00:26:08;0.50;;;0.50;;
63880;SDS011;50046;46.672;11.152;2022-11-20T00:26:21;0.50;;;0.50;;
63880;SDS011;50046;46.672;11.152;2022-11-20T00:26:32;0.50;;;0.50;;
63880;SDS011;50046;46.672;11.152;2022-11-20T00:26:43;0.40;;;0.40;;
63880;SDS011;50046;46.672;11.152;2022-11-20T00:26:54;0.40;;;0.40;;
63880;SDS011;50046;46.672;11.152;2022-11-20T00:27:04;0.43;;;0.43;;
63880;SDS011;50046;46.672;11.152;2022-11-20T00:27:14;0.50;;;0.50;;
63880;SDS011;50046;46.672;11.152;2022-11-20T00:27:25;0.50;;;0.50;;
63880;SDS011;50046;46.672;11.152;2022-11-20T00:27:35;0.50;;;0.50;;
63880;SDS011;50046;46.672;11.152;2022-11-20T00:27:45;0.50;;;0.50;;
63880;SDS011;50046;46.672;11.152;2022-11-20T00:27:56;0.43;;;0.43;;
63880;SDS011;50046;46.672;11.152;2022-11-20T00:28:06;0.40;;;0.40;;
63880;SDS011;50046;46.672;11.152;2022-11-20T00:28:17;0.40;;;0.40;;
63880;SDS011;50046;46.672;11.152;2022-11-20T00:28:27;0.47;;;0.47;;
63880;SDS011;50046;46.672;11.152;2022-11-20T00:28:37;0.50;;;0.50;;
63880;SDS011;50046;46.672;11.152;2022-11-20T00:28:52;0.50;;;0.50;;
63880;SDS011;50046;46.672;11.152;2022-11-20T00:29:04;0.47;;;0.47;;
63880;SDS011;50046;46.672;11.152;2022-11-20T00:29:15;0.40;;;0.40;;
63880;SDS011;50046;46.672;11.152;2022-11-20T00:29:25;0.40;;;0.40;;
63880;SDS011;50046;46.672;11.152;2022-11-20T00:29:36;0.40;;;0.40;;
63880;SDS011;50046;46.672;11.152;2022-11-20T00:29:46;0.40;;;0.40;;
63880;SDS011;50046;46.672;11.152;2022-11-20T00:29:56;0.50;;;0.50;;
63880;SDS011;50046;46.672;11.152;2022-11-20T00:30:07;0.50;;;0.50;;
63880;SDS011;50046;46.672;11.152;2022-11-20T00:30:18;0.40;;;0.40;;
63880;SDS011;50046;46.672;11.152;2022-11-20T00:30:28;0.40;;;0.40;;
63880;SDS011;50046;46.672;11.152;2022-11-20T00:30:38;0.40;;;0.40;;
63880;SDS011;50046;46.672;11.152;2022-11-20T00:30:49;0.50;;;0.50;;
63880;SDS011;50046;46.672;11.152;2022-11-20T00:31:00;0.60;;;0.60;;
63880;SDS011;50046;46.672;11.152;2022-11-20T00:31:13;0.70;;;0.70;;
63880;SDS011;50046;46.672;11.152;2022-11-20T00:31:25;0.60;;;0.60;;
63880;SDS011;50046;46.672;11.152;2022-11-20T00:31:37;0.60;;;0.60;;
63880;SDS011;50046;46.672;11.152;2022-11-20T00:31:47;0.50;;;0.50;;
63880;SDS011;50046;46.672;11.152;2022-11-20T00:31:58;0.50;;;0.50;;
63880;SDS011;50046;46.672;11.152;2022-11-20T00:32:08;0.50;;;0.50;;
63880;SDS011;50046;46.672;11.152;2022-11-20T00:32:18;0.43;;;0.43;;
63880;SDS011;50046;46.672;11.152;2022-11-20T00:32:29;0.40;;;0.40;;
63880;SDS011;50046;46.672;11.152;2022-11-20T00:32:39;0.40;;;0.40;;
63880;SDS011;50046;46.672;11.152;2022-11-20T00:32:50;0.40;;;0.40;;
63880;SDS011;50046;46.672;11.152;2022-11-20T00:33:00;0.47;;;0.47;;
63880;SDS011;50046;46.672;11.152;2022-11-20T00:33:10;0.50;;;0.50;;
63880;SDS011;50046;46.672;11.152;2022-11-20T00:33:21;0.40;;;0.40;;
63880;SDS011;50046;46.672;11.152;2022-11-20T00:33:31;0.40;;;0.40;;
63880;SDS011;50046;46.672;11.152;2022-11-20T00:33:43;0.43;;;0.43;;
63880;SDS011;50046;46.672;11.152;2022-11-20T00:33:54;0.52;;;0.52;;
63880;SDS011;50046;46.672;11.152;2022-11-20T00:34:04;0.60;;;0.60;;
63880;SDS011;50046;46.672;11.152;2022-11-20T00:34:33;0.60;;;0.60;;
63880;SDS011;50046;46.672;11.152;2022-11-20T00:34:43;0.50;;;0.50;;
63880;SDS011;50046;46.672;11.152;2022-11-20T00:34:54;0.50;;;0.50;;
63880;SDS011;50046;46.672;11.152;2022-11-20T00:35:04;0.40;;;0.40;;
63880;SDS011;50046;46.672;11.152;2022-11-20T00:35:15;0.40;;;0.40;;
63880;SDS011;50046;46.672;11.152;2022-11-20T00:35:25;0.40;;;0.40;;
63880;SDS011;50046;46.672;11.152;2022-11-20T00:35:36;0.40;;;0.40;;
63880;SDS011;50046;46.672;11.152;2022-11-20T00:35:46;0.50;;;0.50;;
63880;SDS011;50046;46.672;11.152;2022-11-20T00:36:03;0.60;;;0.60;;
63880;SDS011;50046;46.672;11.152;2022-11-20T00:36:16;0.50;;;0.50;;
63880;SDS011;50046;46.672;11.152;2022-11-20T00:36:28;0.50;;;0.50;;
63880;SDS011;50046;46.672;11.152;2022-11-20T00:36:42;0.50;;;0.50;;
63880;SDS011;50046;46.672;11.152;2022-11-20T00:36:52;0.40;;;0.40;;
63880;SDS011;50046;46.672;11.152;2022-11-20T00:37:02;0.40;;;0.40;;
63880;SDS011;50046;46.672;11.152;2022-11-20T00:37:13;0.40;;;0.40;;
63880;SDS011;50046;46.672;11.152;2022-11-20T00:37:23;0.40;;;0.40;;
63880;SDS011;50046;46.672;11.152;2022-11-20T00:37:33;0.47;;;0.47;;
63880;SDS011;50046;46.672;11.152;2022-11-20T00:37:44;0.50;;;0.50;;
63880;SDS011;50046;46.672;11.152;2022-11-20T00:37:54;0.50;;;0.50;;
63880;SDS011;50046;46.672;11.152;2022-11-20T00:38:04;0.50;;;0.50;;
63880;SDS011;50046;46.672;11.152;2022-11-20T00:38:15;0.40;;;0.40;;
63880;SDS011;50046;46.672;11.152;2022-11-20T00:38:25;0.40;;;0.40;;
63880;SDS011;50046;46.672;11.152;2022-11-20T00:38:35;0.43;;;0.43;;
63880;SDS011;50046;46.672;11.152;2022-11-20T00:38:46;0.50;;;0.50;;
63880;SDS011;50046;46.672;11.152;2022-11-20T00:38:57;0.60;;;0.60;;
63880;SDS011;50046;46.672;11.152;2022-11-20T00:39:08;0.60;;;0.60;;
63880;SDS011;50046;46.672;11.152;2022-11-20T00:39:18;0.50;;;0.50;;
63880;SDS011;50046;46.672;11.152;2022-11-20T00:39:29;0.50;;;0.50;;
63880;SDS011;50046;46.672;11.152;2022-11-20T00:39:39;0.50;;;0.50;;
63880;SDS011;50046;46.672;11.152;2022-11-20T00:39:49;0.50;;;0.50;;
63880;SDS011;50046;46.672;11.152;2022-11-20T00:40:00;0.40;;;0.40;;
63880;SDS011;50046;46.672;11.152;2022-11-20T00:40:10;0.40;;;0.40;;
63880;SDS011;50046;46.672;11.152;2022-11-20T00:40:21;0.40;;;0.40;;
63880;SDS011;50046;46.672;11.152;2022-11-20T00:40:31;0.45;;;0.45;;
63880;SDS011;50046;46.672;11.152;2022-11-20T00:40:42;0.50;;;0.50;;
63880;SDS011;50046;46.672;11.152;2022-11-20T00:40:58;0.50;;;0.50;;
63880;SDS011;50046;46.672;11.152;2022-11-20T00:41:13;0.50;;;0.50;;
63880;SDS011;50046;46.672;11.152;2022-11-20T00:41:26;0.40;;;0.40;;
63880;SDS011;50046;46.672;11.152;2022-11-20T00:41:39;0.40;;;0.40;;
63880;SDS011;50046;46.672;11.152;2022-11-20T00:41:49;0.40;;;0.40;;
63880;SDS011;50046;46.672;11.152;2022-11-20T00:42:00;0.50;;;0.50;;
63880;SDS011;50046;46.672;11.152;2022-11-20T00:42:10;0.50;;;0.50;;
63880;SDS011;50046;46.672;11.152;2022-11-20T00:42:21;0.50;;;0.50;;
63880;SDS011;50046;46.672;11.152;2022-11-20T00:42:31;0.50;;;0.50;;
63880;SDS011;50046;46.672;11.152;2022-11-20T00:42:42;0.40;;;0.40;;
63880;SDS011;50046;46.672;11.152;2022-11-20T00:42:53;0.40;;;0.40;;
63880;SDS011;50046;46.672;11.152;2022-11-20T00:43:03;0.40;;;0.40;;
63880;SDS011;50046;46.672;11.152;2022-11-20T00:43:13;0.47;;;0.47;;
63880;SDS011;50046;46.672;11.152;2022-11-20T00:43:24;0.50;;;0.50;;
63880;SDS011;50046;46.672;11.152;2022-11-20T00:43:35;0.50;;;0.50;;
63880;SDS011;50046;46.672;11.152;2022-11-20T00:43:46;0.43;;;0.43;;
63880;SDS011;50046;46.672;11.152;2022-11-20T00:43:56;0.40;;;0.40;;
63880;SDS011;50046;46.672;11.152;2022-11-20T00:44:07;0.40;;;0.40;;
63880;SDS011;50046;46.672;11.152;2022-11-20T00:44:17;0.50;;;0.50;;
63880;SDS011;50046;46.672;11.152;2022-11-20T00:44:28;0.50;;;0.50;;
63880;SDS011;50046;46.672;11.152;2022-11-20T00:44:38;0.50;;;0.50;;
63880;SDS011;50046;46.672;11.152;2022-11-20T00:44:48;0.50;;;0.50;;
63880;SDS011;50046;46.672;11.152;2022-11-20T00:44:59;0.40;;;0.40;;
63880;SDS011;50046;46.672;11.152;2022-11-20T00:45:09;0.40;;;0.40;;
63880;SDS011;50046;46.672;11.152;2022-11-20T00:45:19;0.40;;;0.40;;
63880;SDS011;50046;46.672;11.152;2022-11-20T00:45:30;0.50;;;0.50;;
63880;SDS011;50046;46.672;11.152;2022-11-20T00:45:40;0.60;;;0.60;;
63880;SDS011;50046;46.672;11.152;2022-11-20T00:45:51;0.60;;;0.60;;
63880;SDS011;50046;46.672;11.152;2022-11-20T00:46:08;0.50;;;0.50;;
63880;SDS011;50046;46.672;11.152;2022-11-20T00:46:22;0.50;;;0.50;;
63880;SDS011;50046;46.672;11.152;2022-11-20T00:46:34;0.40;;;0.40;;
63880;SDS011;50046;46.672;11.152;2022-11-20T00:46:44;0.50;;;0.50;;
63880;SDS011;50046;46.672;11.152;2022-11-20T00:46:55;0.60;;;0.60;;
63880;SDS011;50046;46.672;11.152;2022-11-20T00:47:05;0.70;;;0.70;;
63880;SDS011;50046;46.672;11.152;2022-11-20T00:47:16;0.70;;;0.70;;
63880;SDS011;50046;46.672;11.152;2022-11-20T00:47:26;0.60;;;0.60;;
63880;SDS011;50046;46.672;11.152;2022-11-20T00:47:36;0.60;;;0.60;;
63880;SDS011;50046;46.672;11.152;2022-11-20T00:47:47;0.50;;;0.50;;
63880;SDS011;50046;46.672;11.152;2022-11-20T00:47:57;0.50;;;0.50;;
63880;SDS011;50046;46.672;11.152;2022-11-20T00:48:07;0.50;;;0.50;;
63880;SDS011;50046;46.672;11.152;2022-11-20T00:48:18;0.47;;;0.47;;
63880;SDS011;50046;46.672;11.152;2022-11-20T00:48:28;0.40;;;0.40;;
63880;SDS011;50046;46.672;11.152;2022-11-20T00:48:39;0.50;;;0.50;;
63880;SDS011;50046;46.672;11.152;2022-11-20T00:48:49;0.50;;;0.50;;
63880;SDS011;50046;46.672;11.152;2022-11-20T00:49:00;0.60;;;0.60;;
63880;SDS011;50046;46.672;11.152;2022-11-20T00:49:10;0.50;;;0.50;;
63880;SDS011;50046;46.672;11.152;2022-11-20T00:49:21;0.50;;;0.50;;
63880;SDS011;50046;46.672;11.152;2022-11-20T00:49:31;0.50;;;0.50;;
63880;SDS011;50046;46.672;11.152;2022-11-20T00:49:41;0.40;;;0.40;;
63880;SDS011;50046;46.672;11.152;2022-11-20T00:49:51;0.40;;;0.40;;
63880;SDS011;50046;46.672;11.152;2022-11-20T00:50:02;0.40;;;0.40;;
63880;SDS011;50046;46.672;11.152;2022-11-20T00:50:12;0.50;;;0.50;;
63880;SDS011;50046;46.672;11.152;2022-11-20T00:50:23;0.52;;;0.52;;
63880;SDS011;50046;46.672;11.152;2022-11-20T00:50:33;0.50;;;0.50;;
63880;SDS011;50046;46.672;11.152;2022-11-20T00:50:43;0.50;;;0.50;;
63880;SDS011;50046;46.672;11.152;2022-11-20T00:50:54;0.50;;;0.50;;
63880;SDS011;50046;46.672;11.152;2022-11-20T00:51:05;0.50;;;0.50;;
63880;SDS011;50046;46.672;11.152;2022-11-20T00:51:17;0.40;;;0.40;;
63880;SDS011;50046;46.672;11.152;2022-11-20T00:51:28;0.50;;;0.50;;
63880;SDS011;50046;46.672;11.152;2022-11-20T00:51:39;0.50;;;0.50;;
63880;SDS011;50046;46.672;11.152;2022-11-20T00:51:49;0.50;;;0.50;;
63880;SDS011;50046;46.672;11.152;2022-11-20T00:52:00;0.50;;;0.50;;
63880;SDS011;50046;46.672;11.152;2022-11-20T00:52:10;0.50;;;0.50;;
63880;SDS011;50046;46.672;11.152;2022-11-20T00:52:20;0.40;;;0.40;;
63880;SDS011;50046;46.672;11.152;2022-11-20T00:52:31;0.40;;;0.40;;
63880;SDS011;50046;46.672;11.152;2022-11-20T00:52:41;0.40;;;0.40;;
63880;SDS011;50046;46.672;11.152;2022-11-20T00:52:51;0.50;;;0.50;;
63880;SDS011;50046;46.672;11.152;2022-11-20T00:53:02;0.50;;;0.50;;
63880;SDS011;50046;46.672;11.152;2022-11-20T00:53:12;0.50;;;0.50;;
63880;SDS011;50046;46.672;11.152;2022-11-20T00:53:23;0.50;;;0.50;;
63880;SDS011;50046;46.672;11.152;2022-11-20T00:53:33;0.40;;;0.40;;
63880;SDS011;50046;46.672;11.152;2022-11-20T00:53:44;0.40;;;0.40;;
63880;SDS011;50046;46.672;11.152;2022-11-20T00:53:55;0.40;;;0.40;;
63880;SDS011;50046;46.672;11.152;2022-11-20T00:54:07;0.47;;;0.47;;
63880;SDS011;50046;46.672;11.152;2022-11-20T00:54:17;0.50;;;0.50;;
63880;SDS011;50046;46.672;11.152;2022-11-20T00:54:27;0.50;;;0.50;;
63880;SDS011;50046;46.672;11.152;2022-11-20T00:54:38;0.50;;;0.50;;
63880;SDS011;50046;46.672;11.152;2022-11-20T00:54:48;0.40;;;0.40;;
63880;SDS011;50046;46.672;11.152;2022-11-20T00:54:59;0.50;;;0.50;;
63880;SDS011;50046;46.672;11.152;2022-11-20T00:55:09;0.45;;;0.45;;
63880;SDS011;50046;46.672;11.152;2022-11-20T00:55:19;0.50;;;0.50;;
63880;SDS011;50046;46.672;11.152;2022-11-20T00:55:30;0.50;;;0.50;;
63880;SDS011;50046;46.672;11.152;2022-11-20T00:55:40;0.60;;;0.60;;
63880;SDS011;50046;46.672;11.152;2022-11-20T00:55:54;0.57;;;0.57;;
63880;SDS011;50046;46.672;11.152;2022-11-20T00:56:06;0.50;;;0.50;;
63880;SDS011;50046;46.672;11.152;2022-11-20T00:56:18;0.40;;;0.40;;
63880;SDS011;50046;46.672;11.152;2022-11-20T00:56:29;0.40;;;0.40;;
63880;SDS011;50046;46.672;11.152;2022-11-20T00:56:39;0.40;;;0.40;;
63880;SDS011;50046;46.672;11.152;2022-11-20T00:56:52;0.50;;;0.50;;
63880;SDS011;50046;46.672;11.152;2022-11-20T00:57:03;0.57;;;0.57;;
63880;SDS011;50046;46.672;11.152;2022-11-20T00:57:13;0.50;;;0.50;;
63880;SDS011;50046;46.672;11.152;2022-11-20T00:57:23;0.50;;;0.50;;
63880;SDS011;50046;46.672;11.152;2022-11-20T00:57:34;0.40;;;0.40;;
63880;SDS011;50046;46.672;11.152;2022-11-20T00:57:44;0.40;;;0.40;;
63880;SDS011;50046;46.672;11.152;2022-11-20T00:57:54;0.40;;;0.40;;
63880;SDS011;50046;46.672;11.152;2022-11-20T00:58:05;0.50;;;0.50;;
63880;SDS011;50046;46.672;11.152;2022-11-20T00:58:15;0.50;;;0.50;;
63880;SDS011;50046;46.672;11.152;2022-11-20T00:58:28;0.50;;;0.50;;
63880;SDS011;50046;46.672;11.152;2022-11-20T00:58:40;0.40;;;0.40;;
63880;SDS011;50046;46.672;11.152;2022-11-20T00:58:52;0.40;;;0.40;;
63880;SDS011;50046;46.672;11.152;2022-11-20T00:59:03;0.40;;;0.40;;
63880;SDS011;50046;46.672;11.152;2022-11-20T00:59:13;0.50;;;0.50;;
63880;SDS011;50046;46.672;11.152;2022-11-20T00:59:23;0.50;;;0.50;;
63880;SDS011;50046;46.672;11.152;2022-11-20T00:59:34;0.50;;;0.50;;
63880;SDS011;50046;46.672;11.152;2022-11-20T00:59:44;0.50;;;0.50;;
63880;SDS011;50046;46.672;11.152;2022-11-20T00:59:55;0.50;;;0.50;;
63880;SDS011;50046;46.672;11.152;2022-11-20T01:00:05;0.40;;;0.40;;
63880;SDS011;50046;46.672;11.152;2022-11-20T01:00:16;0.40;;;0.40;;
63880;SDS011;50046;46.672;11.152;2022-11-20T01:00:27;0.40;;;0.40;;
63880;SDS011;50046;46.672;11.152;2022-11-20T01:00:37;0.50;;;0.50;;
63880;SDS011;50046;46.672;11.152;2022-11-20T01:00:47;0.60;;;0.60;;
63880;SDS011;50046;46.672;11.152;2022-11-20T01:01:28;0.50;;;0.50;;
63880;SDS011;50046;46.672;11.152;2022-11-20T01:01:39;0.40;;;0.40;;
63880;SDS011;50046;46.672;11.152;2022-11-20T01:01:50;0.40;;;0.40;;
63880;SDS011;50046;46.672;11.152;2022-11-20T01:02:00;0.40;;;0.40;;
63880;SDS011;50046;46.672;11.152;2022-11-20T01:02:10;0.40;;;0.40;;
63880;SDS011;50046;46.672;11.152;2022-11-20T01:02:21;0.50;;;0.50;;
63880;SDS011;50046;46.672;11.152;2022-11-20T01:02:31;0.40;;;0.40;;
63880;SDS011;50046;46.672;11.152;2022-11-20T01:02:41;0.40;;;0.40;;
63880;SDS011;50046;46.672;11.152;2022-11-20T01:02:52;0.40;;;0.40;;
63880;SDS011;50046;46.672;11.152;2022-11-20T01:03:02;0.40;;;0.40;;
63880;SDS011;50046;46.672;11.152;2022-11-20T01:03:12;0.40;;;0.40;;
63880;SDS011;50046;46.672;11.152;2022-11-20T01:03:23;0.50;;;0.50;;
63880;SDS011;50046;46.672;11.152;2022-11-20T01:03:34;0.50;;;0.50;;
63880;SDS011;50046;46.672;11.152;2022-11-20T01:03:47;0.40;;;0.40;;
63880;SDS011;50046;46.672;11.152;2022-11-20T01:03:59;0.40;;;0.40;;
63880;SDS011;50046;46.672;11.152;2022-11-20T01:04:10;0.40;;;0.40;;
63880;SDS011;50046;46.672;11.152;2022-11-20T01:04:20;0.50;;;0.50;;
63880;SDS011;50046;46.672;11.152;2022-11-20T01:04:30;0.50;;;0.50;;
63880;SDS011;50046;46.672;11.152;2022-11-20T01:04:41;0.50;;;0.50;;
63880;SDS011;50046;46.672;11.152;2022-11-20T01:04:52;0.50;;;0.50;;
63880;SDS011;50046;46.672;11.152;2022-11-20T01:05:02;0.50;;;0.50;;
63880;SDS011;50046;46.672;11.152;2022-11-20T01:05:13;0.50;;;0.50;;
63880;SDS011;50046;46.672;11.152;2022-11-20T01:05:23;0.40;;;0.40;;
63880;SDS011;50046;46.672;11.152;2022-11-20T01:05:34;0.40;;;0.40;;
63880;SDS011;50046;46.672;11.152;2022-11-20T01:05:45;0.50;;;0.50;;